createdAt,value
2018-09-03T00:00:09.323Z,11.43
2018-09-03T00:02:37.050Z,9.80
2018-09-03T00:05:04.793Z,11.63
2018-09-03T00:07:32.451Z,10.63
2018-09-03T00:10:00.087Z,10.77
2018-09-03T00:12:27.782Z,10.57
2018-09-03T00:14:55.426Z,10.23
2018-09-03T00:17:22.992Z,10.63
2018-09-03T00:19:50.534Z,11.40
2018-09-03T00:22:18.186Z,10.33
2018-09-03T00:24:45.849Z,10.10
2018-09-03T00:27:13.471Z,10.30
2018-09-03T00:29:41.126Z,9.57
2018-09-03T00:32:14.289Z,10.30
2018-09-03T00:34:47.657Z,11.07
2018-09-03T00:37:21.010Z,10.27
2018-09-03T00:39:54.273Z,11.00
2018-09-03T00:42:27.418Z,11.50
2018-09-03T00:45:00.878Z,9.90
2018-09-03T00:47:28.537Z,9.97
2018-09-03T00:49:56.251Z,11.30
2018-09-03T00:52:23.962Z,10.87
2018-09-03T00:54:51.650Z,10.20
2018-09-03T00:57:19.298Z,11.63
2018-09-03T00:59:46.955Z,10.17
2018-09-03T01:02:14.593Z,10.60
2018-09-03T01:04:42.278Z,9.67
2018-09-03T01:07:09.910Z,10.43
2018-09-03T01:09:37.526Z,10.43
2018-09-03T01:12:05.187Z,10.70
2018-09-03T01:14:32.815Z,10.93
2018-09-03T01:17:00.459Z,9.50
2018-09-03T01:19:28.168Z,10.87
2018-09-03T01:21:55.782Z,10.87
2018-09-03T01:24:23.451Z,10.20
2018-09-03T01:26:51.110Z,11.00
2018-09-03T01:29:18.732Z,10.93
2018-09-03T01:31:46.372Z,9.80
2018-09-03T01:34:14.014Z,10.70
2018-09-03T01:36:41.646Z,11.10
2018-09-03T01:39:09.267Z,10.47
2018-09-03T01:41:36.903Z,10.83
2018-09-03T01:44:04.548Z,10.37
2018-09-03T01:46:32.166Z,9.60
2018-09-03T01:48:59.810Z,9.60
2018-09-03T01:51:27.434Z,10.67
2018-09-03T01:53:55.055Z,10.53
2018-09-03T01:56:22.667Z,10.07
2018-09-03T01:58:50.265Z,11.90
2018-09-03T02:01:17.797Z,10.13
2018-09-03T02:03:45.449Z,10.50
2018-09-03T02:06:13.081Z,12.33
2018-09-03T02:08:40.737Z,11.30
2018-09-03T02:11:08.254Z,11.20
2018-09-03T02:13:35.965Z,11.03
2018-09-03T02:16:03.687Z,10.73
2018-09-03T02:18:31.333Z,10.90
2018-09-03T02:20:58.921Z,10.43
2018-09-03T02:23:26.542Z,13.13
2018-09-03T02:25:54.168Z,11.57
2018-09-03T02:28:21.806Z,10.97
2018-09-03T02:30:49.462Z,11.33
2018-09-03T02:33:17.103Z,11.13
2018-09-03T02:35:44.783Z,10.10
2018-09-03T02:38:12.414Z,11.00
2018-09-03T02:40:39.971Z,10.73
2018-09-03T02:43:07.615Z,10.50
2018-09-03T02:45:35.239Z,11.33
2018-09-03T02:48:02.891Z,11.10
2018-09-03T02:50:30.506Z,12.53
2018-09-03T02:52:58.162Z,11.67
2018-09-03T02:55:25.818Z,11.13
2018-09-03T02:57:53.451Z,11.03
2018-09-03T03:00:24.779Z,10.90
2018-09-03T03:02:52.605Z,11.53
2018-09-03T03:05:20.283Z,11.00
2018-09-03T03:07:47.907Z,10.77
2018-09-03T03:10:15.548Z,11.50
2018-09-03T03:12:43.176Z,11.93
2018-09-03T03:15:10.844Z,11.30
2018-09-03T03:17:38.519Z,11.67
2018-09-03T03:20:06.224Z,12.47
2018-09-03T03:22:33.834Z,11.33
2018-09-03T03:25:01.494Z,11.57
2018-09-03T03:27:29.146Z,11.40
2018-09-03T03:29:56.763Z,11.03
2018-09-03T03:32:24.402Z,11.67
2018-09-03T03:34:52.034Z,11.40
2018-09-03T03:37:19.644Z,11.17
2018-09-03T03:39:47.255Z,11.80
2018-09-03T03:42:14.905Z,11.70
2018-09-03T03:44:42.548Z,10.83
2018-09-03T03:47:10.179Z,11.63
2018-09-03T03:49:37.784Z,10.17
2018-09-03T03:52:05.490Z,10.87
2018-09-03T03:54:33.142Z,10.77
2018-09-03T03:57:00.801Z,11.63
2018-09-03T03:59:28.479Z,10.93
2018-09-03T04:01:56.055Z,10.73
2018-09-03T04:04:23.684Z,11.67
2018-09-03T04:06:51.322Z,10.97
2018-09-03T04:09:18.936Z,11.33
2018-09-03T04:11:46.556Z,11.93
2018-09-03T04:14:14.195Z,12.00
2018-09-03T04:16:41.850Z,11.63
2018-09-03T04:19:09.490Z,12.33
2018-09-03T04:21:37.046Z,11.27
2018-09-03T04:24:04.715Z,10.73
2018-09-03T04:26:32.326Z,10.03
2018-09-03T04:28:59.853Z,11.10
2018-09-03T04:31:27.459Z,10.93
2018-09-03T04:33:55.118Z,12.03
2018-09-03T04:36:22.751Z,10.50
2018-09-03T04:38:50.383Z,10.73
2018-09-03T04:41:17.955Z,10.63
2018-09-03T04:43:45.589Z,8.33
2018-09-03T04:46:13.241Z,8.33
2018-09-03T04:48:40.754Z,8.23
2018-09-03T04:51:08.423Z,8.10
2018-09-03T04:53:36.001Z,8.00
2018-09-03T04:56:03.844Z,8.60
2018-09-03T04:58:31.491Z,10.30
2018-09-03T05:00:59.028Z,11.00
2018-09-03T05:03:26.679Z,11.00
2018-09-03T05:05:54.461Z,11.63
2018-09-03T05:08:22.140Z,10.63
2018-09-03T05:10:49.812Z,10.30
2018-09-03T05:13:17.450Z,10.57
2018-09-03T05:15:45.102Z,10.47
2018-09-03T05:18:12.798Z,11.73
2018-09-03T05:20:40.539Z,10.00
2018-09-03T05:23:08.194Z,10.73
2018-09-03T05:25:35.874Z,10.83
2018-09-03T05:28:03.522Z,9.97
2018-09-03T05:30:31.175Z,9.80
2018-09-03T05:32:58.855Z,10.37
2018-09-03T05:35:26.493Z,9.83
2018-09-03T05:37:54.118Z,9.30
2018-09-03T05:40:21.734Z,10.20
2018-09-03T05:42:49.346Z,8.73
2018-09-03T05:45:16.941Z,9.60
2018-09-03T05:47:44.574Z,9.90
2018-09-03T05:50:12.225Z,9.17
2018-09-03T05:52:39.730Z,9.33
2018-09-03T05:55:07.379Z,10.67
2018-09-03T05:57:34.998Z,11.70
2018-09-03T06:00:02.685Z,10.23
2018-09-03T06:02:30.290Z,9.70
2018-09-03T06:04:57.990Z,8.20
2018-09-03T06:07:25.529Z,8.90
2018-09-03T06:09:53.187Z,8.57
2018-09-03T06:12:20.769Z,9.70
2018-09-03T06:14:48.294Z,9.47
2018-09-03T06:17:15.943Z,8.90
2018-09-03T06:19:43.479Z,9.20
2018-09-03T06:22:11.143Z,8.80
2018-09-03T06:24:38.782Z,7.77
2018-09-03T06:27:06.306Z,8.23
2018-09-03T06:29:33.962Z,8.23
2018-09-03T06:32:01.586Z,8.50
2018-09-03T06:34:30.241Z,8.40
2018-09-03T06:36:58.147Z,8.87
2018-09-03T06:39:25.766Z,8.63
2018-09-03T06:41:53.518Z,8.17
2018-09-03T06:44:21.166Z,9.67
2018-09-03T06:46:48.810Z,8.90
2018-09-03T06:49:16.431Z,9.23
2018-09-03T06:51:44.066Z,7.13
2018-09-03T06:54:11.750Z,8.23
2018-09-03T06:56:39.387Z,8.57
2018-09-03T06:59:11.345Z,8.50
2018-09-03T07:01:39.205Z,7.70
2018-09-03T07:04:06.852Z,7.43
2018-09-03T07:06:34.509Z,8.30
2018-09-03T07:09:02.201Z,7.27
2018-09-03T07:11:29.803Z,7.70
2018-09-03T07:13:57.527Z,7.97
2018-09-03T07:16:25.302Z,8.13
2018-09-03T07:18:52.969Z,8.47
2018-09-03T07:21:20.789Z,8.23
2018-09-03T07:23:48.486Z,7.40
2018-09-03T07:26:16.335Z,9.10
2018-09-03T07:28:43.983Z,8.60
2018-09-03T07:31:11.615Z,7.43
2018-09-03T07:33:39.307Z,8.50
2018-09-03T07:36:06.967Z,7.60
2018-09-03T07:38:41.390Z,7.47
2018-09-03T07:41:09.063Z,7.37
2018-09-03T07:43:36.736Z,7.30
2018-09-03T07:46:04.499Z,6.90
2018-09-03T07:48:32.154Z,7.23
2018-09-03T07:50:59.983Z,7.40
2018-09-03T07:53:27.554Z,7.10
2018-09-03T07:55:55.227Z,7.87
2018-09-03T07:58:22.851Z,8.10
2018-09-03T08:00:50.486Z,7.17
2018-09-03T08:03:18.124Z,8.07
2018-09-03T08:05:45.728Z,8.37
2018-09-03T08:08:13.364Z,7.83
2018-09-03T08:10:41.081Z,7.40
2018-09-03T08:13:08.760Z,7.13
2018-09-03T08:15:36.366Z,8.23
2018-09-03T08:18:04.012Z,7.13
2018-09-03T08:20:31.751Z,8.30
2018-09-03T08:22:59.422Z,7.20
2018-09-03T08:25:27.047Z,7.83
2018-09-03T08:27:54.696Z,7.63
2018-09-03T08:30:22.320Z,7.73
2018-09-03T08:32:49.926Z,6.33
2018-09-03T08:35:17.687Z,6.63
2018-09-03T08:37:45.362Z,7.33
2018-09-03T08:40:13.103Z,7.13
2018-09-03T08:42:40.712Z,7.13
2018-09-03T08:45:08.382Z,7.10
2018-09-03T08:47:36.047Z,7.33
2018-09-03T08:50:03.784Z,8.20
2018-09-03T08:52:31.497Z,7.77
2018-09-03T08:54:59.163Z,7.17
2018-09-03T08:57:26.951Z,7.53
2018-09-03T08:59:54.807Z,7.67
2018-09-03T09:02:22.573Z,8.23
2018-09-03T09:04:50.369Z,8.00
2018-09-03T09:07:24.644Z,8.63
2018-09-03T09:09:52.354Z,7.70
2018-09-03T09:12:20.164Z,8.07
2018-09-03T09:14:48.024Z,7.67
2018-09-03T09:17:15.678Z,7.63
2018-09-03T09:19:43.336Z,7.07
2018-09-03T09:22:10.978Z,8.17
2018-09-03T09:24:38.719Z,7.83
2018-09-03T09:27:06.611Z,7.43
2018-09-03T09:29:34.365Z,7.70
2018-09-03T09:32:02.378Z,8.30
2018-09-03T09:34:30.006Z,7.50
2018-09-03T09:36:57.689Z,8.07
2018-09-03T09:39:25.321Z,7.43
2018-09-03T09:41:52.951Z,7.73
2018-09-03T09:44:20.603Z,6.77
2018-09-03T09:46:48.252Z,6.77
2018-09-03T09:49:15.925Z,7.47
2018-09-03T09:51:43.645Z,7.00
2018-09-03T09:54:11.362Z,7.83
2018-09-03T09:56:39.098Z,7.90
2018-09-03T09:59:13.262Z,7.83
2018-09-03T10:01:40.921Z,6.60
2018-09-03T10:04:08.561Z,6.93
2018-09-03T10:06:36.263Z,6.47
2018-09-03T10:09:05.463Z,6.07
2018-09-03T10:11:33.088Z,6.53
2018-09-03T10:14:00.748Z,6.63
2018-09-03T10:16:28.473Z,6.50
2018-09-03T10:18:56.162Z,5.97
2018-09-03T10:21:23.925Z,7.17
2018-09-03T10:23:51.587Z,6.23
2018-09-03T10:26:19.243Z,6.23
2018-09-03T10:28:46.909Z,6.03
2018-09-03T10:31:14.512Z,6.53
2018-09-03T10:33:42.134Z,5.63
2018-09-03T10:36:09.762Z,4.73
2018-09-03T10:38:37.367Z,4.60
2018-09-03T10:41:05.074Z,5.13
2018-09-03T10:43:32.762Z,5.43
2018-09-03T10:46:00.366Z,5.77
2018-09-03T10:48:27.962Z,6.07
2018-09-03T10:50:55.632Z,5.70
2018-09-03T10:53:23.265Z,5.80
2018-09-03T10:55:50.887Z,6.00
2018-09-03T10:58:18.906Z,5.67
2018-09-03T11:00:46.532Z,6.00
2018-09-03T11:03:14.199Z,5.70
2018-09-03T11:05:41.844Z,6.20
2018-09-03T11:08:09.456Z,4.53
2018-09-03T11:10:37.074Z,5.63
2018-09-03T11:13:04.758Z,5.57
2018-09-03T11:15:32.446Z,6.13
2018-09-03T11:18:00.119Z,5.43
2018-09-03T11:20:29.884Z,5.10
2018-09-03T11:22:58.010Z,4.83
2018-09-03T11:25:26.833Z,4.77
2018-09-03T11:27:55.171Z,5.37
2018-09-03T11:30:23.277Z,5.20
2018-09-03T11:32:57.938Z,5.40
2018-09-03T11:35:25.715Z,4.97
2018-09-03T11:37:53.504Z,4.87
2018-09-03T11:40:22.007Z,5.10
2018-09-03T11:42:49.643Z,4.50
2018-09-03T11:45:18.406Z,4.90
2018-09-03T11:47:46.337Z,5.10
2018-09-03T11:50:14.503Z,4.73
2018-09-03T11:52:42.149Z,5.00
2018-09-03T11:55:09.984Z,3.90
2018-09-03T11:57:37.857Z,4.20
2018-09-03T12:00:06.932Z,3.63
2018-09-03T12:02:34.671Z,4.23
2018-09-03T12:05:02.326Z,3.57
2018-09-03T12:07:30.067Z,4.43
2018-09-03T12:09:57.771Z,4.57
2018-09-03T12:12:25.430Z,4.50
2018-09-03T12:14:55.587Z,2.80
2018-09-03T12:17:23.292Z,4.07
2018-09-03T12:19:50.955Z,4.23
2018-09-03T12:22:18.623Z,4.37
2018-09-03T12:24:46.282Z,3.97
2018-09-03T12:27:13.961Z,3.77
2018-09-03T12:29:41.581Z,4.23
2018-09-03T12:32:09.280Z,3.87
2018-09-03T12:34:36.900Z,3.70
2018-09-03T12:37:04.761Z,4.07
2018-09-03T12:39:32.359Z,4.10
2018-09-03T12:42:00.206Z,3.77
2018-09-03T12:44:27.855Z,4.10
2018-09-03T12:46:55.502Z,3.43
2018-09-03T12:49:23.146Z,3.53
2018-09-03T12:51:50.867Z,3.83
2018-09-03T12:54:18.655Z,3.97
2018-09-03T12:56:46.274Z,3.90
2018-09-03T12:59:13.963Z,4.27
2018-09-03T13:01:41.562Z,4.37
2018-09-03T13:04:09.171Z,3.80
2018-09-03T13:06:36.807Z,3.50
2018-09-03T13:09:06.274Z,4.57
2018-09-03T13:11:33.919Z,4.37
2018-09-03T13:14:01.523Z,4.83
2018-09-03T13:16:29.239Z,5.40
2018-09-03T13:18:56.919Z,5.40
2018-09-03T13:21:24.514Z,5.53
2018-09-03T13:23:52.211Z,4.80
2018-09-03T13:26:19.909Z,5.23
2018-09-03T13:28:47.535Z,5.53
2018-09-03T13:31:15.235Z,5.90
2018-09-03T13:33:42.920Z,5.60
2018-09-03T13:36:10.604Z,5.07
2018-09-03T13:38:38.291Z,5.60
2018-09-03T13:41:05.964Z,5.07
2018-09-03T13:43:33.599Z,5.80
2018-09-03T13:46:01.262Z,5.67
2018-09-03T13:48:28.855Z,5.47
2018-09-03T13:50:56.518Z,5.30
2018-09-03T13:53:24.172Z,4.97
2018-09-03T13:55:51.821Z,5.00
2018-09-03T13:58:19.435Z,4.60
2018-09-03T14:00:47.042Z,5.40
2018-09-03T14:03:14.823Z,5.53
2018-09-03T14:05:42.411Z,4.87
2018-09-03T14:08:10.159Z,4.97
2018-09-03T14:10:37.890Z,5.10
2018-09-03T14:13:05.703Z,4.87
2018-09-03T14:15:33.420Z,5.10
2018-09-03T14:18:01.039Z,5.20
2018-09-03T14:20:28.687Z,4.37
2018-09-03T14:23:03.062Z,4.00
2018-09-03T14:25:30.716Z,4.53
2018-09-03T14:27:58.568Z,4.60
2018-09-03T14:30:26.215Z,3.97
2018-09-03T14:32:53.837Z,3.73
2018-09-03T14:35:21.505Z,3.97
2018-09-03T14:37:49.148Z,3.90
2018-09-03T14:40:16.791Z,3.63
2018-09-03T14:42:44.571Z,3.80
2018-09-03T14:45:12.280Z,3.53
2018-09-03T14:47:39.893Z,3.57
2018-09-03T14:50:07.659Z,3.67
2018-09-03T14:52:35.318Z,3.70
2018-09-03T14:55:03.024Z,3.70
2018-09-03T14:57:30.845Z,3.70
2018-09-03T14:59:58.577Z,4.10
2018-09-03T15:02:26.313Z,4.33
2018-09-03T15:04:54.230Z,4.20
2018-09-03T15:07:21.883Z,4.67
2018-09-03T15:09:49.639Z,4.80
2018-09-03T15:12:17.342Z,3.90
2018-09-03T15:14:45.079Z,3.97
2018-09-03T15:17:12.710Z,3.80
2018-09-03T15:19:40.504Z,3.33
2018-09-03T15:22:08.134Z,3.90
2018-09-03T15:24:35.774Z,3.73
2018-09-03T15:27:03.451Z,3.03
2018-09-03T15:29:31.116Z,3.63
2018-09-03T15:31:58.796Z,3.77
2018-09-03T15:34:26.522Z,4.87
2018-09-03T15:36:54.266Z,4.40
2018-09-03T15:39:21.911Z,4.60
2018-09-03T15:41:49.659Z,4.40
2018-09-03T15:44:17.366Z,4.20
2018-09-03T15:46:45.036Z,4.27
2018-09-03T15:49:12.690Z,4.50
2018-09-03T15:51:40.338Z,4.03
2018-09-03T15:54:08.081Z,3.70
2018-09-03T15:56:35.672Z,3.77
2018-09-03T15:59:03.347Z,4.30
2018-09-03T16:01:30.987Z,4.33
2018-09-03T16:03:59.051Z,4.00
2018-09-03T16:06:26.750Z,3.80
2018-09-03T16:08:54.376Z,3.57
2018-09-03T16:11:22.087Z,4.20
2018-09-03T16:13:49.742Z,3.93
2018-09-03T16:16:17.460Z,4.30
2018-09-03T16:18:45.549Z,3.70
2018-09-03T16:21:13.208Z,3.80
2018-09-03T16:23:40.830Z,4.20
2018-09-03T16:26:08.456Z,4.40
2018-09-03T16:28:36.100Z,4.17
2018-09-03T16:31:03.827Z,4.10
2018-09-03T16:33:31.490Z,3.97
2018-09-03T16:35:59.196Z,3.73
2018-09-03T16:38:26.779Z,3.73
2018-09-03T16:40:54.428Z,3.70
2018-09-03T16:43:22.036Z,3.67
2018-09-03T16:45:49.716Z,3.83
2018-09-03T16:48:18.077Z,4.10
2018-09-03T16:50:45.821Z,3.97
2018-09-03T16:53:13.479Z,3.87
2018-09-03T16:55:41.127Z,3.53
2018-09-03T16:58:08.767Z,4.17
2018-09-03T17:00:36.384Z,3.50
2018-09-03T17:03:04.001Z,4.27
2018-09-03T17:05:31.687Z,3.83
2018-09-03T17:07:59.446Z,3.87
2018-09-03T17:10:27.039Z,3.30
2018-09-03T17:12:54.774Z,3.53
2018-09-03T17:15:22.476Z,3.63
2018-09-03T17:17:50.154Z,4.10
2018-09-03T17:20:17.883Z,3.63
2018-09-03T17:22:45.510Z,3.03
2018-09-03T17:25:13.202Z,4.00
2018-09-03T17:27:40.803Z,3.30
2018-09-03T17:30:08.508Z,3.30
2018-09-03T17:32:36.139Z,3.87
2018-09-03T17:35:04.115Z,3.83
2018-09-03T17:37:31.794Z,3.40
2018-09-03T17:39:59.492Z,3.77
2018-09-03T17:42:27.126Z,3.40
2018-09-03T17:44:54.892Z,3.07
2018-09-03T17:47:22.569Z,3.23
2018-09-03T17:49:50.369Z,3.13
2018-09-03T17:52:18.131Z,3.20
2018-09-03T17:54:45.883Z,3.00
2018-09-03T17:57:13.483Z,3.03
2018-09-03T17:59:41.149Z,3.50
2018-09-03T18:02:08.881Z,3.57
2018-09-03T18:04:36.719Z,3.43
2018-09-03T18:07:04.378Z,2.97
2018-09-03T18:09:32.315Z,3.23
2018-09-03T18:11:59.929Z,3.43
2018-09-03T18:14:27.583Z,3.13
2018-09-03T18:16:55.227Z,3.50
2018-09-03T18:19:22.958Z,3.40
2018-09-03T18:21:50.702Z,3.10
2018-09-03T18:24:18.394Z,3.50
2018-09-03T18:26:46.090Z,3.53
2018-09-03T18:29:13.783Z,3.67
2018-09-03T18:31:41.436Z,3.83
2018-09-03T18:34:09.079Z,3.77
2018-09-03T18:36:36.718Z,3.83
2018-09-03T18:39:05.302Z,3.60
2018-09-03T18:41:32.940Z,3.33
2018-09-03T18:44:00.569Z,3.73
2018-09-03T18:46:28.630Z,4.97
2018-09-03T18:48:56.304Z,4.53
2018-09-03T18:51:23.916Z,3.77
2018-09-03T18:53:51.606Z,3.87
2018-09-03T18:56:19.230Z,3.97
2018-09-03T18:58:46.875Z,3.57
2018-09-03T19:01:15.038Z,3.77
2018-09-03T19:03:42.667Z,3.67
2018-09-03T19:06:10.491Z,4.03
2018-09-03T19:08:38.133Z,3.43
2018-09-03T19:11:05.803Z,3.57
2018-09-03T19:13:33.563Z,3.47
2018-09-03T19:16:01.224Z,3.83
2018-09-03T19:18:29.051Z,3.60
2018-09-03T19:20:56.671Z,3.30
2018-09-03T19:23:24.303Z,4.17
2018-09-03T19:25:52.028Z,3.40
2018-09-03T19:28:19.739Z,3.40
2018-09-03T19:30:47.364Z,4.37
2018-09-03T19:33:15.013Z,3.13
2018-09-03T19:35:42.747Z,3.30
2018-09-03T19:38:10.383Z,3.33
2018-09-03T19:40:38.031Z,4.00
2018-09-03T19:43:05.709Z,3.43
2018-09-03T19:45:33.378Z,3.80
2018-09-03T19:48:00.983Z,4.17
2018-09-03T19:50:28.642Z,4.97
2018-09-03T19:52:56.343Z,4.33
2018-09-03T19:55:24.000Z,3.60
2018-09-03T19:57:51.656Z,3.90
2018-09-03T20:00:19.354Z,4.70
2018-09-03T20:02:47.025Z,4.60
2018-09-03T20:05:14.692Z,4.00
2018-09-03T20:07:42.362Z,3.83
2018-09-03T20:10:09.953Z,4.83
2018-09-03T20:12:37.579Z,4.72
2018-09-03T20:15:07.194Z,3.77
2018-09-03T20:17:34.779Z,3.53
2018-09-03T20:20:02.502Z,3.47
2018-09-03T20:22:30.109Z,3.40
2018-09-03T20:24:57.739Z,3.47
2018-09-03T20:27:25.366Z,3.33
2018-09-03T20:29:52.984Z,3.30
2018-09-03T20:32:20.596Z,3.90
2018-09-03T20:34:48.262Z,3.60
2018-09-03T20:37:15.875Z,3.40
2018-09-03T20:39:43.482Z,3.33
2018-09-03T20:42:11.112Z,3.67
2018-09-03T20:44:38.722Z,5.17
2018-09-03T20:47:06.371Z,3.50
2018-09-03T20:49:33.960Z,4.27
2018-09-03T20:52:01.573Z,4.72
2018-09-03T20:54:29.194Z,4.50
2018-09-03T20:56:56.796Z,3.80
2018-09-03T20:59:24.418Z,5.12
2018-09-03T21:01:52.040Z,5.03
2018-09-03T21:04:19.646Z,4.27
2018-09-03T21:06:47.654Z,3.30
2018-09-03T21:09:15.280Z,3.63
2018-09-03T21:11:42.892Z,3.43
2018-09-03T21:14:10.514Z,3.67
2018-09-03T21:16:38.119Z,4.00
2018-09-03T21:19:05.775Z,3.73
2018-09-03T21:21:33.403Z,5.22
2018-09-03T21:24:01.041Z,4.40
2018-09-03T21:26:28.678Z,3.70
2018-09-03T21:28:56.298Z,3.67
2018-09-03T21:31:23.906Z,3.47
2018-09-03T21:33:51.506Z,4.73
2018-09-03T21:36:19.191Z,3.87
2018-09-03T21:38:46.819Z,3.50
2018-09-03T21:41:14.494Z,4.37
2018-09-03T21:43:42.104Z,3.80
2018-09-03T21:46:09.703Z,3.40
2018-09-03T21:48:37.314Z,3.67
2018-09-03T21:51:04.982Z,3.80
2018-09-03T21:53:32.619Z,4.40
2018-09-03T21:56:00.659Z,3.83
2018-09-03T21:58:28.333Z,3.70
2018-09-03T22:00:56.270Z,3.60
2018-09-03T22:03:24.189Z,3.90
2018-09-03T22:05:51.922Z,3.70
2018-09-03T22:08:19.546Z,4.00
2018-09-03T22:10:47.250Z,3.67
2018-09-03T22:13:15.028Z,3.87
2018-09-03T22:15:42.650Z,3.83
2018-09-03T22:18:10.811Z,3.63
2018-09-03T22:20:38.526Z,4.13
2018-09-03T22:23:06.239Z,4.27
2018-09-03T22:25:33.874Z,4.13
2018-09-03T22:28:01.515Z,3.87
2018-09-03T22:30:29.224Z,4.07
2018-09-03T22:32:56.882Z,4.47
2018-09-03T22:36:49.104Z,4.10
2018-09-03T22:39:16.849Z,4.47
2018-09-03T22:41:44.462Z,4.47
2018-09-03T22:44:12.088Z,4.57
2018-09-03T22:46:39.630Z,5.07
2018-09-03T22:49:07.530Z,4.13
2018-09-03T22:51:35.178Z,4.53
2018-09-03T22:54:02.930Z,4.97
2018-09-03T22:56:30.538Z,4.60
2018-09-03T22:58:58.058Z,4.70
2018-09-03T23:01:25.971Z,5.20
2018-09-03T23:03:53.609Z,5.00
2018-09-03T23:06:21.335Z,5.53
2018-09-03T23:08:48.989Z,4.70
2018-09-03T23:11:16.665Z,4.30
2018-09-03T23:13:44.246Z,5.00
2018-09-03T23:16:11.871Z,5.30
2018-09-03T23:18:39.515Z,5.40
2018-09-03T23:21:07.198Z,4.67
2018-09-03T23:23:34.861Z,4.50
2018-09-03T23:26:02.530Z,5.30
2018-09-03T23:28:30.060Z,4.73
2018-09-03T23:30:57.658Z,5.13
2018-09-03T23:33:25.373Z,5.27
2018-09-03T23:35:53.064Z,4.87
2018-09-03T23:38:20.735Z,6.13
2018-09-03T23:40:48.398Z,4.97
2018-09-03T23:43:16.052Z,5.13
2018-09-03T23:45:43.743Z,4.30
2018-09-03T23:48:11.454Z,4.73
2018-09-03T23:50:39.151Z,5.50
2018-09-03T23:53:06.848Z,4.17
2018-09-03T23:55:34.514Z,4.00
2018-09-03T23:58:02.139Z,4.57
